sensor_id;sensor_type;location;lat;lon;timestamp;temperature;humidity
3406;DHT22;10008;48.682;9.016;2023-07-13T00:01:29;19.10;99.90
3406;DHT22;10008;48.682;9.016;2023-07-13T00:03:56;19.10;99.90
3406;DHT22;10008;48.682;9.016;2023-07-13T00:06:22;19.10;99.90
3406;DHT22;10008;48.682;9.016;2023-07-13T00:08:48;19.10;99.90
3406;DHT22;10008;48.682;9.016;2023-07-13T00:11:16;19.00;99.90
3406;DHT22;10008;48.682;9.016;2023-07-13T00:13:43;18.90;99.90
3406;DHT22;10008;48.682;9.016;2023-07-13T00:16:10;18.90;99.90
3406;DHT22;10008;48.682;9.016;2023-07-13T00:18:37;18.80;99.90
3406;DHT22;10008;48.682;9.016;2023-07-13T00:21:03;18.80;99.90
3406;DHT22;10008;48.682;9.016;2023-07-13T00:23:37;18.80;99.90
3406;DHT22;10008;48.682;9.016;2023-07-13T00:26:04;18.70;99.90
3406;DHT22;10008;48.682;9.016;2023-07-13T00:28:31;18.70;99.90
3406;DHT22;10008;48.682;9.016;2023-07-13T00:30:56;18.60;99.90
3406;DHT22;10008;48.682;9.016;2023-07-13T00:33:23;18.60;99.90
3406;DHT22;10008;48.682;9.016;2023-07-13T00:35:50;18.50;99.90
3406;DHT22;10008;48.682;9.016;2023-07-13T00:38:16;18.50;99.90
3406;DHT22;10008;48.682;9.016;2023-07-13T00:40:42;18.50;99.90
3406;DHT22;10008;48.682;9.016;2023-07-13T00:43:13;18.40;99.90
3406;DHT22;10008;48.682;9.016;2023-07-13T00:48:10;18.30;99.90
3406;DHT22;10008;48.682;9.016;2023-07-13T00:50:37;18.30;99.90
3406;DHT22;10008;48.682;9.016;2023-07-13T00:53:04;18.20;99.90
3406;DHT22;10008;48.682;9.016;2023-07-13T00:55:29;18.20;99.90
3406;DHT22;10008;48.682;9.016;2023-07-13T00:57:55;18.20;99.90
3406;DHT22;10008;48.682;9.016;2023-07-13T01:00:22;18.20;99.90
3406;DHT22;10008;48.682;9.016;2023-07-13T01:02:48;18.20;99.90
3406;DHT22;10008;48.682;9.016;2023-07-13T01:05:18;18.10;99.90
3406;DHT22;10008;48.682;9.016;2023-07-13T01:07:44;18.10;99.90
3406;DHT22;10008;48.682;9.016;2023-07-13T01:10:12;18.20;99.90
3406;DHT22;10008;48.682;9.016;2023-07-13T01:12:38;18.10;99.90
3406;DHT22;10008;48.682;9.016;2023-07-13T01:15:05;18.20;99.90
3406;DHT22;10008;48.682;9.016;2023-07-13T01:17:33;18.30;99.90
3406;DHT22;10008;48.682;9.016;2023-07-13T01:19:59;18.30;99.90
3406;DHT22;10008;48.682;9.016;2023-07-13T01:22:25;18.30;99.90
3406;DHT22;10008;48.682;9.016;2023-07-13T01:24:53;18.40;99.90
3406;DHT22;10008;48.682;9.016;2023-07-13T01:27:25;18.40;99.90
3406;DHT22;10008;48.682;9.016;2023-07-13T01:29:52;18.30;99.90
3406;DHT22;10008;48.682;9.016;2023-07-13T01:32:21;18.20;99.90
3406;DHT22;10008;48.682;9.016;2023-07-13T01:34:50;18.20;99.90
3406;DHT22;10008;48.682;9.016;2023-07-13T01:37:16;18.20;99.90
3406;DHT22;10008;48.682;9.016;2023-07-13T01:39:42;18.20;99.90
3406;DHT22;10008;48.682;9.016;2023-07-13T01:42:08;18.10;99.90
3406;DHT22;10008;48.682;9.016;2023-07-13T01:44:34;18.00;99.90
3406;DHT22;10008;48.682;9.016;2023-07-13T01:47:01;18.00;99.90
3406;DHT22;10008;48.682;9.016;2023-07-13T01:49:27;18.00;99.90
3406;DHT22;10008;48.682;9.016;2023-07-13T01:51:52;17.70;99.90
3406;DHT22;10008;48.682;9.016;2023-07-13T01:54:18;17.80;99.90
3406;DHT22;10008;48.682;9.016;2023-07-13T01:56:44;17.80;99.90
3406;DHT22;10008;48.682;9.016;2023-07-13T01:59:10;17.80;99.90
3406;DHT22;10008;48.682;9.016;2023-07-13T02:01:36;17.70;99.90
3406;DHT22;10008;48.682;9.016;2023-07-13T02:04:02;17.70;99.90
3406;DHT22;10008;48.682;9.016;2023-07-13T02:06:32;17.70;99.90
3406;DHT22;10008;48.682;9.016;2023-07-13T02:08:58;17.60;99.90
3406;DHT22;10008;48.682;9.016;2023-07-13T02:11:24;17.60;99.90
3406;DHT22;10008;48.682;9.016;2023-07-13T02:13:51;17.60;99.90
3406;DHT22;10008;48.682;9.016;2023-07-13T02:16:17;17.50;99.90
3406;DHT22;10008;48.682;9.016;2023-07-13T02:18:43;17.40;99.90
3406;DHT22;10008;48.682;9.016;2023-07-13T02:21:08;17.40;99.90
3406;DHT22;10008;48.682;9.016;2023-07-13T02:23:34;17.40;99.90
3406;DHT22;10008;48.682;9.016;2023-07-13T02:26:01;17.40;99.90
3406;DHT22;10008;48.682;9.016;2023-07-13T02:28:28;17.30;99.90
3406;DHT22;10008;48.682;9.016;2023-07-13T02:30:54;17.30;99.90
3406;DHT22;10008;48.682;9.016;2023-07-13T02:33:19;17.30;99.90
3406;DHT22;10008;48.682;9.016;2023-07-13T02:35:47;17.20;99.90
3406;DHT22;10008;48.682;9.016;2023-07-13T02:38:13;17.20;99.90
3406;DHT22;10008;48.682;9.016;2023-07-13T02:40:39;17.20;99.90
3406;DHT22;10008;48.682;9.016;2023-07-13T02:43:05;17.10;99.90
3406;DHT22;10008;48.682;9.016;2023-07-13T02:45:31;17.10;99.90
3406;DHT22;10008;48.682;9.016;2023-07-13T02:47:56;17.00;99.90
3406;DHT22;10008;48.682;9.016;2023-07-13T02:50:22;17.00;99.90
3406;DHT22;10008;48.682;9.016;2023-07-13T02:52:48;16.90;99.90
3406;DHT22;10008;48.682;9.016;2023-07-13T02:55:14;16.90;99.90
3406;DHT22;10008;48.682;9.016;2023-07-13T02:57:40;16.80;99.90
3406;DHT22;10008;48.682;9.016;2023-07-13T03:00:07;16.80;99.90
3406;DHT22;10008;48.682;9.016;2023-07-13T03:02:34;16.70;99.90
3406;DHT22;10008;48.682;9.016;2023-07-13T03:05:00;16.70;99.90
3406;DHT22;10008;48.682;9.016;2023-07-13T03:07:27;16.70;99.90
3406;DHT22;10008;48.682;9.016;2023-07-13T03:09:57;16.60;99.90
3406;DHT22;10008;48.682;9.016;2023-07-13T03:12:25;16.60;99.90
3406;DHT22;10008;48.682;9.016;2023-07-13T03:14:51;16.60;99.90
3406;DHT22;10008;48.682;9.016;2023-07-13T03:17:17;16.50;99.90
3406;DHT22;10008;48.682;9.016;2023-07-13T03:19:43;16.50;99.90
3406;DHT22;10008;48.682;9.016;2023-07-13T03:22:10;16.50;99.90
3406;DHT22;10008;48.682;9.016;2023-07-13T03:24:38;16.50;99.90
3406;DHT22;10008;48.682;9.016;2023-07-13T03:27:05;16.60;99.90
3406;DHT22;10008;48.682;9.016;2023-07-13T03:29:32;16.60;99.90
3406;DHT22;10008;48.682;9.016;2023-07-13T03:31:58;16.70;99.90
3406;DHT22;10008;48.682;9.016;2023-07-13T03:34:24;16.70;99.90
3406;DHT22;10008;48.682;9.016;2023-07-13T03:36:50;16.70;99.90
3406;DHT22;10008;48.682;9.016;2023-07-13T03:39:16;16.70;99.90
3406;DHT22;10008;48.682;9.016;2023-07-13T03:41:52;16.80;99.90
3406;DHT22;10008;48.682;9.016;2023-07-13T03:44:18;16.80;99.90
3406;DHT22;10008;48.682;9.016;2023-07-13T03:46:45;16.80;99.90
3406;DHT22;10008;48.682;9.016;2023-07-13T03:49:11;17.00;99.90
3406;DHT22;10008;48.682;9.016;2023-07-13T03:51:37;17.00;99.90
3406;DHT22;10008;48.682;9.016;2023-07-13T03:54:04;17.00;99.90
3406;DHT22;10008;48.682;9.016;2023-07-13T03:56:30;17.00;99.90
3406;DHT22;10008;48.682;9.016;2023-07-13T03:58:58;16.90;99.90
3406;DHT22;10008;48.682;9.016;2023-07-13T04:01:24;16.90;99.90
3406;DHT22;10008;48.682;9.016;2023-07-13T04:03:51;16.90;99.90
3406;DHT22;10008;48.682;9.016;2023-07-13T04:06:29;17.00;99.90
3406;DHT22;10008;48.682;9.016;2023-07-13T04:08:57;17.00;99.90
3406;DHT22;10008;48.682;9.016;2023-07-13T04:11:25;17.10;99.90
3406;DHT22;10008;48.682;9.016;2023-07-13T04:13:51;17.10;99.90
3406;DHT22;10008;48.682;9.016;2023-07-13T04:16:18;17.10;99.90
3406;DHT22;10008;48.682;9.016;2023-07-13T04:18:45;17.20;99.90
3406;DHT22;10008;48.682;9.016;2023-07-13T04:21:12;17.20;99.90
3406;DHT22;10008;48.682;9.016;2023-07-13T04:23:39;17.20;99.90
3406;DHT22;10008;48.682;9.016;2023-07-13T04:26:05;17.20;99.90
3406;DHT22;10008;48.682;9.016;2023-07-13T04:28:31;17.10;99.90
3406;DHT22;10008;48.682;9.016;2023-07-13T04:30:57;17.10;99.90
3406;DHT22;10008;48.682;9.016;2023-07-13T04:33:23;17.10;99.90
3406;DHT22;10008;48.682;9.016;2023-07-13T04:35:53;17.00;99.90
3406;DHT22;10008;48.682;9.016;2023-07-13T04:38:30;17.00;99.90
3406;DHT22;10008;48.682;9.016;2023-07-13T04:40:58;17.00;99.90
3406;DHT22;10008;48.682;9.016;2023-07-13T04:43:25;17.00;99.90
3406;DHT22;10008;48.682;9.016;2023-07-13T04:45:52;17.00;99.90
3406;DHT22;10008;48.682;9.016;2023-07-13T04:48:18;17.10;99.90
3406;DHT22;10008;48.682;9.016;2023-07-13T04:50:44;17.10;99.90
3406;DHT22;10008;48.682;9.016;2023-07-13T04:53:10;17.10;99.90
3406;DHT22;10008;48.682;9.016;2023-07-13T04:55:36;17.20;99.90
3406;DHT22;10008;48.682;9.016;2023-07-13T04:58:02;17.20;99.90
3406;DHT22;10008;48.682;9.016;2023-07-13T05:00:29;17.20;99.90
3406;DHT22;10008;48.682;9.016;2023-07-13T05:02:56;17.10;99.90
3406;DHT22;10008;48.682;9.016;2023-07-13T05:05:23;17.00;99.90
3406;DHT22;10008;48.682;9.016;2023-07-13T05:07:49;17.10;99.90
3406;DHT22;10008;48.682;9.016;2023-07-13T05:10:15;17.20;99.90
3406;DHT22;10008;48.682;9.016;2023-07-13T05:12:41;17.40;99.90
3406;DHT22;10008;48.682;9.016;2023-07-13T05:15:07;17.40;99.90
3406;DHT22;10008;48.682;9.016;2023-07-13T05:17:33;17.60;99.90
3406;DHT22;10008;48.682;9.016;2023-07-13T05:19:59;17.80;99.90
3406;DHT22;10008;48.682;9.016;2023-07-13T05:22:25;17.80;99.90
3406;DHT22;10008;48.682;9.016;2023-07-13T05:24:50;18.00;99.90
3406;DHT22;10008;48.682;9.016;2023-07-13T05:27:16;18.10;99.90
3406;DHT22;10008;48.682;9.016;2023-07-13T05:29:42;18.20;99.90
3406;DHT22;10008;48.682;9.016;2023-07-13T05:32:08;18.20;99.90
3406;DHT22;10008;48.682;9.016;2023-07-13T05:34:33;18.30;99.90
3406;DHT22;10008;48.682;9.016;2023-07-13T05:37:00;18.20;99.90
3406;DHT22;10008;48.682;9.016;2023-07-13T05:39:25;18.20;99.90
3406;DHT22;10008;48.682;9.016;2023-07-13T05:41:53;18.20;99.90
3406;DHT22;10008;48.682;9.016;2023-07-13T05:44:18;18.30;99.90
3406;DHT22;10008;48.682;9.016;2023-07-13T05:46:45;18.30;99.90
3406;DHT22;10008;48.682;9.016;2023-07-13T05:49:11;18.40;99.90
3406;DHT22;10008;48.682;9.016;2023-07-13T05:51:37;18.40;99.90
3406;DHT22;10008;48.682;9.016;2023-07-13T05:54:03;18.40;99.90
3406;DHT22;10008;48.682;9.016;2023-07-13T05:56:28;18.40;99.90
3406;DHT22;10008;48.682;9.016;2023-07-13T05:58:54;18.30;99.90
3406;DHT22;10008;48.682;9.016;2023-07-13T06:01:20;18.40;99.90
3406;DHT22;10008;48.682;9.016;2023-07-13T06:03:46;18.40;99.90
3406;DHT22;10008;48.682;9.016;2023-07-13T06:06:13;18.50;99.90
3406;DHT22;10008;48.682;9.016;2023-07-13T06:08:38;18.70;99.90
3406;DHT22;10008;48.682;9.016;2023-07-13T06:13:36;19.00;99.90
3406;DHT22;10008;48.682;9.016;2023-07-13T06:16:02;19.90;99.90
3406;DHT22;10008;48.682;9.016;2023-07-13T06:18:33;20.60;99.90
3406;DHT22;10008;48.682;9.016;2023-07-13T06:20:59;21.50;99.90
3406;DHT22;10008;48.682;9.016;2023-07-13T06:23:25;22.00;99.80
3406;DHT22;10008;48.682;9.016;2023-07-13T06:25:51;22.20;98.90
3406;DHT22;10008;48.682;9.016;2023-07-13T06:28:17;22.20;98.10
3406;DHT22;10008;48.682;9.016;2023-07-13T06:30:42;22.30;95.20
3406;DHT22;10008;48.682;9.016;2023-07-13T06:33:08;22.50;95.80
3406;DHT22;10008;48.682;9.016;2023-07-13T06:35:34;22.40;94.10
3406;DHT22;10008;48.682;9.016;2023-07-13T06:38:00;22.00;93.60
3406;DHT22;10008;48.682;9.016;2023-07-13T06:40:25;21.90;94.20
3406;DHT22;10008;48.682;9.016;2023-07-13T06:42:51;22.40;96.20
3406;DHT22;10008;48.682;9.016;2023-07-13T06:45:17;23.30;96.10
3406;DHT22;10008;48.682;9.016;2023-07-13T06:47:43;24.30;94.50
3406;DHT22;10008;48.682;9.016;2023-07-13T06:50:09;25.50;92.60
3406;DHT22;10008;48.682;9.016;2023-07-13T06:52:34;26.10;91.00
3406;DHT22;10008;48.682;9.016;2023-07-13T06:55:00;26.30;90.50
3406;DHT22;10008;48.682;9.016;2023-07-13T06:57:26;27.20;88.80
3406;DHT22;10008;48.682;9.016;2023-07-13T06:59:53;27.80;80.90
3406;DHT22;10008;48.682;9.016;2023-07-13T07:02:18;28.40;79.80
3406;DHT22;10008;48.682;9.016;2023-07-13T07:04:44;28.50;79.00
3406;DHT22;10008;48.682;9.016;2023-07-13T07:07:10;27.40;78.00
3406;DHT22;10008;48.682;9.016;2023-07-13T07:09:35;27.70;81.00
3406;DHT22;10008;48.682;9.016;2023-07-13T07:12:02;28.10;76.90
3406;DHT22;10008;48.682;9.016;2023-07-13T07:14:29;28.70;77.10
3406;DHT22;10008;48.682;9.016;2023-07-13T07:16:55;29.00;77.60
3406;DHT22;10008;48.682;9.016;2023-07-13T07:19:21;28.50;74.60
3406;DHT22;10008;48.682;9.016;2023-07-13T07:21:46;28.20;76.10
3406;DHT22;10008;48.682;9.016;2023-07-13T07:24:12;28.20;75.60
3406;DHT22;10008;48.682;9.016;2023-07-13T07:26:38;28.20;71.10
3406;DHT22;10008;48.682;9.016;2023-07-13T07:29:04;28.70;74.90
3406;DHT22;10008;48.682;9.016;2023-07-13T07:31:29;28.80;71.00
3406;DHT22;10008;48.682;9.016;2023-07-13T07:33:55;29.90;73.20
3406;DHT22;10008;48.682;9.016;2023-07-13T07:36:21;30.90;68.10
3406;DHT22;10008;48.682;9.016;2023-07-13T07:38:46;30.50;67.40
3406;DHT22;10008;48.682;9.016;2023-07-13T07:41:12;30.70;65.20
3406;DHT22;10008;48.682;9.016;2023-07-13T07:43:38;29.80;62.80
3406;DHT22;10008;48.682;9.016;2023-07-13T07:46:04;30.20;66.00
3406;DHT22;10008;48.682;9.016;2023-07-13T07:48:30;30.70;66.10
3406;DHT22;10008;48.682;9.016;2023-07-13T07:50:56;30.90;63.90
3406;DHT22;10008;48.682;9.016;2023-07-13T07:53:22;30.80;62.90
3406;DHT22;10008;48.682;9.016;2023-07-13T07:55:48;30.70;58.10
3406;DHT22;10008;48.682;9.016;2023-07-13T07:58:14;30.90;59.90
3406;DHT22;10008;48.682;9.016;2023-07-13T08:00:40;30.80;56.50
3406;DHT22;10008;48.682;9.016;2023-07-13T08:03:06;31.30;59.90
3406;DHT22;10008;48.682;9.016;2023-07-13T08:05:31;30.80;55.40
3406;DHT22;10008;48.682;9.016;2023-07-13T08:08:00;31.30;60.00
3406;DHT22;10008;48.682;9.016;2023-07-13T08:10:26;30.90;59.60
3406;DHT22;10008;48.682;9.016;2023-07-13T08:12:52;30.90;55.60
3406;DHT22;10008;48.682;9.016;2023-07-13T08:15:18;30.80;59.70
3406;DHT22;10008;48.682;9.016;2023-07-13T08:17:49;30.90;53.90
3406;DHT22;10008;48.682;9.016;2023-07-13T08:20:16;31.50;53.10
3406;DHT22;10008;48.682;9.016;2023-07-13T08:22:41;31.80;56.10
3406;DHT22;10008;48.682;9.016;2023-07-13T08:25:07;31.80;57.70
3406;DHT22;10008;48.682;9.016;2023-07-13T08:27:33;31.30;56.40
3406;DHT22;10008;48.682;9.016;2023-07-13T08:29:59;31.00;60.10
3406;DHT22;10008;48.682;9.016;2023-07-13T08:32:25;31.30;58.60
3406;DHT22;10008;48.682;9.016;2023-07-13T08:34:51;31.20;58.50
3406;DHT22;10008;48.682;9.016;2023-07-13T08:37:17;30.80;55.00
3406;DHT22;10008;48.682;9.016;2023-07-13T08:39:43;30.90;56.30
3406;DHT22;10008;48.682;9.016;2023-07-13T08:42:34;32.00;60.00
3406;DHT22;10008;48.682;9.016;2023-07-13T08:45:29;32.40;55.20
3406;DHT22;10008;48.682;9.016;2023-07-13T08:48:03;31.50;57.30
3406;DHT22;10008;48.682;9.016;2023-07-13T08:50:47;32.00;54.70
3406;DHT22;10008;48.682;9.016;2023-07-13T08:53:15;31.50;55.10
3406;DHT22;10008;48.682;9.016;2023-07-13T08:55:42;31.70;52.90
3406;DHT22;10008;48.682;9.016;2023-07-13T08:58:13;32.20;57.40
3406;DHT22;10008;48.682;9.016;2023-07-13T09:01:23;32.80;53.70
3406;DHT22;10008;48.682;9.016;2023-07-13T09:04:13;32.90;52.20
3406;DHT22;10008;48.682;9.016;2023-07-13T09:06:49;31.70;48.30
3406;DHT22;10008;48.682;9.016;2023-07-13T09:12:17;32.00;53.10
3406;DHT22;10008;48.682;9.016;2023-07-13T09:14:48;32.40;55.00
3406;DHT22;10008;48.682;9.016;2023-07-13T09:17:24;31.00;54.00
3406;DHT22;10008;48.682;9.016;2023-07-13T09:19:58;29.40;53.70
3406;DHT22;10008;48.682;9.016;2023-07-13T09:22:26;29.60;58.10
3406;DHT22;10008;48.682;9.016;2023-07-13T09:25:03;30.20;57.20
3406;DHT22;10008;48.682;9.016;2023-07-13T09:27:43;30.50;52.30
3406;DHT22;10008;48.682;9.016;2023-07-13T09:32:41;31.30;55.30
3406;DHT22;10008;48.682;9.016;2023-07-13T09:35:18;30.50;54.80
3406;DHT22;10008;48.682;9.016;2023-07-13T09:37:45;30.10;53.70
3406;DHT22;10008;48.682;9.016;2023-07-13T09:40:21;29.30;58.20
3406;DHT22;10008;48.682;9.016;2023-07-13T09:42:49;28.80;58.00
3406;DHT22;10008;48.682;9.016;2023-07-13T09:45:27;28.90;56.80
3406;DHT22;10008;48.682;9.016;2023-07-13T09:48:20;28.80;55.50
3406;DHT22;10008;48.682;9.016;2023-07-13T09:50:45;28.60;55.40
3406;DHT22;10008;48.682;9.016;2023-07-13T09:53:16;28.50;55.80
3406;DHT22;10008;48.682;9.016;2023-07-13T09:55:45;29.30;59.60
3406;DHT22;10008;48.682;9.016;2023-07-13T09:58:15;29.20;60.40
3406;DHT22;10008;48.682;9.016;2023-07-13T10:00:43;28.70;61.00
3406;DHT22;10008;48.682;9.016;2023-07-13T10:03:20;27.80;61.50
3406;DHT22;10008;48.682;9.016;2023-07-13T10:05:49;27.80;59.50
3406;DHT22;10008;48.682;9.016;2023-07-13T10:08:23;27.70;57.20
3406;DHT22;10008;48.682;9.016;2023-07-13T10:11:00;27.30;58.70
3406;DHT22;10008;48.682;9.016;2023-07-13T10:13:35;27.50;59.20
3406;DHT22;10008;48.682;9.016;2023-07-13T10:16:04;28.00;56.30
3406;DHT22;10008;48.682;9.016;2023-07-13T10:19:19;28.80;56.40
3406;DHT22;10008;48.682;9.016;2023-07-13T10:21:22;30.00;57.30
3406;DHT22;10008;48.682;9.016;2023-07-13T10:23:57;31.10;59.40
3406;DHT22;10008;48.682;9.016;2023-07-13T10:26:33;31.40;56.50
3406;DHT22;10008;48.682;9.016;2023-07-13T10:29:05;31.50;53.50
3406;DHT22;10008;48.682;9.016;2023-07-13T10:31:34;31.70;55.20
3406;DHT22;10008;48.682;9.016;2023-07-13T10:34:02;30.70;55.20
3406;DHT22;10008;48.682;9.016;2023-07-13T10:36:45;30.10;52.30
3406;DHT22;10008;48.682;9.016;2023-07-13T10:39:27;29.70;58.00
3406;DHT22;10008;48.682;9.016;2023-07-13T10:41:57;29.30;53.80
3406;DHT22;10008;48.682;9.016;2023-07-13T10:44:31;29.00;56.50
3406;DHT22;10008;48.682;9.016;2023-07-13T10:47:08;29.10;57.30
3406;DHT22;10008;48.682;9.016;2023-07-13T10:49:37;29.40;56.20
3406;DHT22;10008;48.682;9.016;2023-07-13T10:52:04;29.70;55.40
3406;DHT22;10008;48.682;9.016;2023-07-13T10:54:34;30.60;55.30
3406;DHT22;10008;48.682;9.016;2023-07-13T10:57:21;31.20;55.80
3406;DHT22;10008;48.682;9.016;2023-07-13T11:02:28;32.00;54.20
3406;DHT22;10008;48.682;9.016;2023-07-13T11:04:56;31.00;53.30
3406;DHT22;10008;48.682;9.016;2023-07-13T11:07:28;29.90;55.40
3406;DHT22;10008;48.682;9.016;2023-07-13T11:09:57;29.00;58.20
3406;DHT22;10008;48.682;9.016;2023-07-13T11:17:34;26.60;57.80
3406;DHT22;10008;48.682;9.016;2023-07-13T11:25:43;26.50;62.50
3406;DHT22;10008;48.682;9.016;2023-07-13T11:28:15;26.50;61.40
3406;DHT22;10008;48.682;9.016;2023-07-13T11:36:16;26.10;61.50
3406;DHT22;10008;48.682;9.016;2023-07-13T11:38:59;26.00;66.40
3406;DHT22;10008;48.682;9.016;2023-07-13T11:41:43;25.80;68.80
3406;DHT22;10008;48.682;9.016;2023-07-13T11:44:15;26.30;66.80
3406;DHT22;10008;48.682;9.016;2023-07-13T11:46:54;27.10;61.90
3406;DHT22;10008;48.682;9.016;2023-07-13T11:49:25;28.60;61.20
3406;DHT22;10008;48.682;9.016;2023-07-13T11:51:53;28.70;60.90
3406;DHT22;10008;48.682;9.016;2023-07-13T11:56:49;27.00;58.80
3406;DHT22;10008;48.682;9.016;2023-07-13T11:59:16;26.40;60.40
3406;DHT22;10008;48.682;9.016;2023-07-13T12:01:44;25.80;61.10
3406;DHT22;10008;48.682;9.016;2023-07-13T12:04:33;26.20;64.80
3406;DHT22;10008;48.682;9.016;2023-07-13T12:07:16;27.90;61.40
3406;DHT22;10008;48.682;9.016;2023-07-13T12:09:42;29.60;56.70
3406;DHT22;10008;48.682;9.016;2023-07-13T12:12:14;30.80;53.60
3406;DHT22;10008;48.682;9.016;2023-07-13T12:14:40;31.10;53.40
3406;DHT22;10008;48.682;9.016;2023-07-13T12:17:23;30.40;55.40
3406;DHT22;10008;48.682;9.016;2023-07-13T12:19:50;29.70;53.90
3406;DHT22;10008;48.682;9.016;2023-07-13T12:22:18;29.60;57.90
3406;DHT22;10008;48.682;9.016;2023-07-13T12:24:45;29.30;53.00
3406;DHT22;10008;48.682;9.016;2023-07-13T12:27:26;29.90;54.40
3406;DHT22;10008;48.682;9.016;2023-07-13T12:32:25;30.90;56.90
3406;DHT22;10008;48.682;9.016;2023-07-13T12:34:53;31.20;53.40
3406;DHT22;10008;48.682;9.016;2023-07-13T12:37:19;31.10;50.40
3406;DHT22;10008;48.682;9.016;2023-07-13T12:39:47;31.40;52.20
3406;DHT22;10008;48.682;9.016;2023-07-13T12:42:26;32.00;50.50
3406;DHT22;10008;48.682;9.016;2023-07-13T12:45:10;32.00;49.50
3406;DHT22;10008;48.682;9.016;2023-07-13T12:47:42;30.50;53.80
3406;DHT22;10008;48.682;9.016;2023-07-13T12:50:16;29.70;54.70
3406;DHT22;10008;48.682;9.016;2023-07-13T12:52:43;29.80;53.10
3406;DHT22;10008;48.682;9.016;2023-07-13T12:55:20;30.50;54.10
3406;DHT22;10008;48.682;9.016;2023-07-13T13:00:26;30.80;57.80
3406;DHT22;10008;48.682;9.016;2023-07-13T13:02:55;31.00;53.50
3406;DHT22;10008;48.682;9.016;2023-07-13T13:05:22;31.10;52.80
3406;DHT22;10008;48.682;9.016;2023-07-13T13:07:50;30.40;56.80
3406;DHT22;10008;48.682;9.016;2023-07-13T13:10:16;29.40;56.50
3406;DHT22;10008;48.682;9.016;2023-07-13T13:12:42;28.50;55.90
3406;DHT22;10008;48.682;9.016;2023-07-13T13:15:09;28.20;59.60
3406;DHT22;10008;48.682;9.016;2023-07-13T13:17:35;28.40;55.10
3406;DHT22;10008;48.682;9.016;2023-07-13T13:20:01;28.80;52.70
3406;DHT22;10008;48.682;9.016;2023-07-13T13:22:27;28.90;53.00
3406;DHT22;10008;48.682;9.016;2023-07-13T13:24:53;28.80;56.80
3406;DHT22;10008;48.682;9.016;2023-07-13T13:27:22;28.50;51.00
3406;DHT22;10008;48.682;9.016;2023-07-13T13:29:50;28.20;56.80
3406;DHT22;10008;48.682;9.016;2023-07-13T13:32:20;27.80;58.90
3406;DHT22;10008;48.682;9.016;2023-07-13T13:34:45;27.70;59.00
3406;DHT22;10008;48.682;9.016;2023-07-13T13:37:22;27.80;56.80
3406;DHT22;10008;48.682;9.016;2023-07-13T13:39:49;26.40;56.80
3406;DHT22;10008;48.682;9.016;2023-07-13T13:42:16;28.70;55.90
3406;DHT22;10008;48.682;9.016;2023-07-13T13:44:42;28.70;52.80
3406;DHT22;10008;48.682;9.016;2023-07-13T13:47:21;28.30;51.30
3406;DHT22;10008;48.682;9.016;2023-07-13T13:49:50;28.10;53.40
3406;DHT22;10008;48.682;9.016;2023-07-13T13:52:15;28.40;55.20
3406;DHT22;10008;48.682;9.016;2023-07-13T13:54:41;28.30;57.10
3406;DHT22;10008;48.682;9.016;2023-07-13T13:57:08;27.90;54.40
3406;DHT22;10008;48.682;9.016;2023-07-13T13:59:34;27.80;54.10
3406;DHT22;10008;48.682;9.016;2023-07-13T14:02:22;28.20;52.70
3406;DHT22;10008;48.682;9.016;2023-07-13T14:04:53;28.50;54.70
3406;DHT22;10008;48.682;9.016;2023-07-13T14:07:19;28.70;50.00
3406;DHT22;10008;48.682;9.016;2023-07-13T14:09:45;29.00;51.40
3406;DHT22;10008;48.682;9.016;2023-07-13T14:12:11;28.80;50.70
3406;DHT22;10008;48.682;9.016;2023-07-13T14:14:40;28.20;56.10
3406;DHT22;10008;48.682;9.016;2023-07-13T14:17:21;27.50;54.50
3406;DHT22;10008;48.682;9.016;2023-07-13T14:19:49;27.20;58.40
3406;DHT22;10008;48.682;9.016;2023-07-13T14:22:19;25.90;61.40
3406;DHT22;10008;48.682;9.016;2023-07-13T14:24:46;26.70;58.30
3406;DHT22;10008;48.682;9.016;2023-07-13T14:27:12;26.70;58.00
3406;DHT22;10008;48.682;9.016;2023-07-13T14:29:38;26.60;55.60
3406;DHT22;10008;48.682;9.016;2023-07-13T14:32:04;26.60;60.60
3406;DHT22;10008;48.682;9.016;2023-07-13T14:34:31;26.50;61.00
3406;DHT22;10008;48.682;9.016;2023-07-13T14:36:57;26.30;60.30
3406;DHT22;10008;48.682;9.016;2023-07-13T14:39:24;26.40;58.20
3406;DHT22;10008;48.682;9.016;2023-07-13T14:41:52;26.60;59.30
3406;DHT22;10008;48.682;9.016;2023-07-13T14:44:23;26.80;58.70
3406;DHT22;10008;48.682;9.016;2023-07-13T14:46:50;26.70;58.80
3406;DHT22;10008;48.682;9.016;2023-07-13T14:49:25;26.60;59.70
3406;DHT22;10008;48.682;9.016;2023-07-13T14:51:51;26.70;59.40
3406;DHT22;10008;48.682;9.016;2023-07-13T14:54:17;26.70;58.40
3406;DHT22;10008;48.682;9.016;2023-07-13T14:56:43;26.70;58.00
3406;DHT22;10008;48.682;9.016;2023-07-13T14:59:09;26.80;60.20
3406;DHT22;10008;48.682;9.016;2023-07-13T15:01:36;26.70;63.70
3406;DHT22;10008;48.682;9.016;2023-07-13T15:04:03;26.70;58.40
3406;DHT22;10008;48.682;9.016;2023-07-13T15:06:29;26.80;57.70
3406;DHT22;10008;48.682;9.016;2023-07-13T15:08:57;26.80;59.30
3406;DHT22;10008;48.682;9.016;2023-07-13T15:11:23;26.70;58.10
3406;DHT22;10008;48.682;9.016;2023-07-13T15:13:49;26.60;58.60
3406;DHT22;10008;48.682;9.016;2023-07-13T15:16:24;26.60;60.40
3406;DHT22;10008;48.682;9.016;2023-07-13T15:18:51;26.60;59.40
3406;DHT22;10008;48.682;9.016;2023-07-13T15:21:23;26.70;60.90
3406;DHT22;10008;48.682;9.016;2023-07-13T15:23:50;26.90;62.80
3406;DHT22;10008;48.682;9.016;2023-07-13T15:26:17;26.70;56.90
3406;DHT22;10008;48.682;9.016;2023-07-13T15:28:46;26.70;61.90
3406;DHT22;10008;48.682;9.016;2023-07-13T15:31:23;26.40;62.40
3406;DHT22;10008;48.682;9.016;2023-07-13T15:33:51;26.10;61.30
3406;DHT22;10008;48.682;9.016;2023-07-13T15:36:19;26.00;58.60
3406;DHT22;10008;48.682;9.016;2023-07-13T15:38:46;26.00;63.20
3406;DHT22;10008;48.682;9.016;2023-07-13T15:41:27;26.10;64.60
3406;DHT22;10008;48.682;9.016;2023-07-13T15:43:58;26.20;61.80
3406;DHT22;10008;48.682;9.016;2023-07-13T15:46:24;26.20;63.80
3406;DHT22;10008;48.682;9.016;2023-07-13T15:48:51;26.00;59.60
3406;DHT22;10008;48.682;9.016;2023-07-13T15:51:28;26.00;60.20
3406;DHT22;10008;48.682;9.016;2023-07-13T15:53:57;26.20;61.80
3406;DHT22;10008;48.682;9.016;2023-07-13T15:56:28;26.20;64.80
3406;DHT22;10008;48.682;9.016;2023-07-13T15:58:55;26.20;64.70
3406;DHT22;10008;48.682;9.016;2023-07-13T16:01:22;26.00;63.90
3406;DHT22;10008;48.682;9.016;2023-07-13T16:03:49;25.70;59.60
3406;DHT22;10008;48.682;9.016;2023-07-13T16:06:23;25.70;65.00
3406;DHT22;10008;48.682;9.016;2023-07-13T16:08:51;25.40;61.30
3406;DHT22;10008;48.682;9.016;2023-07-13T16:11:24;25.30;61.80
3406;DHT22;10008;48.682;9.016;2023-07-13T16:13:51;25.20;60.70
3406;DHT22;10008;48.682;9.016;2023-07-13T16:16:26;25.40;64.10
3406;DHT22;10008;48.682;9.016;2023-07-13T16:18:56;25.40;60.30
3406;DHT22;10008;48.682;9.016;2023-07-13T16:21:31;25.30;60.50
3406;DHT22;10008;48.682;9.016;2023-07-13T16:23:58;25.20;60.40
3406;DHT22;10008;48.682;9.016;2023-07-13T16:26:35;25.20;60.60
3406;DHT22;10008;48.682;9.016;2023-07-13T16:29:16;25.10;62.30
3406;DHT22;10008;48.682;9.016;2023-07-13T16:31:54;25.00;60.60